createdAt,value
2022-11-19T00:00:35.465Z,72.13
2022-11-19T00:03:23.356Z,72.07
2022-11-19T00:05:51.523Z,72.74
2022-11-19T00:08:39.097Z,72.67
2022-11-19T00:11:11.107Z,72.61
2022-11-19T00:13:58.055Z,73.18
2022-11-19T00:16:25.995Z,73.09
2022-11-19T00:19:00.105Z,73.21
2022-11-19T00:21:29.833Z,73.01
2022-11-19T00:23:57.924Z,73.07
2022-11-19T00:26:26.058Z,72.73
2022-11-19T00:28:54.981Z,72.87
2022-11-19T00:31:23.186Z,73.01
2022-11-19T00:33:51.251Z,72.70
2022-11-19T00:36:19.436Z,72.42
2022-11-19T00:38:47.466Z,72.54
2022-11-19T00:41:15.761Z,72.48
2022-11-19T00:43:50.305Z,72.60
2022-11-19T00:46:21.398Z,72.65
2022-11-19T00:48:51.859Z,72.09
2022-11-19T00:51:22.220Z,71.97
2022-11-19T00:53:51.023Z,72.06
2022-11-19T00:56:22.106Z,71.98
2022-11-19T00:58:51.095Z,71.91
2022-11-19T01:01:22.611Z,71.78
2022-11-19T01:03:51.316Z,72.03
2022-11-19T01:06:22.079Z,71.77
2022-11-19T01:08:51.956Z,72.05
2022-11-19T01:11:23.917Z,71.89
2022-11-19T01:13:52.182Z,71.83
2022-11-19T01:16:23.838Z,71.93
2022-11-19T01:18:52.910Z,71.92
2022-11-19T01:21:23.652Z,72.00
2022-11-19T01:23:51.700Z,72.41
2022-11-19T01:26:20.639Z,72.36
2022-11-19T01:28:49.316Z,72.19
2022-11-19T01:31:27.157Z,72.31
2022-11-19T01:33:55.766Z,72.72
2022-11-19T01:36:29.339Z,72.79
2022-11-19T01:38:57.776Z,73.43
2022-11-19T01:41:32.193Z,73.45
2022-11-19T01:44:06.187Z,73.82
2022-11-19T01:46:37.757Z,73.94
2022-11-19T01:49:17.389Z,73.75
2022-11-19T01:52:01.081Z,73.86
2022-11-19T01:54:55.555Z,74.06
2022-11-19T01:57:23.797Z,74.03
2022-11-19T01:59:52.906Z,73.99
2022-11-19T02:02:23.932Z,73.91
2022-11-19T02:04:57.977Z,73.78
2022-11-19T02:07:29.667Z,74.02
2022-11-19T02:10:12.437Z,73.97
2022-11-19T02:13:05.922Z,73.83
2022-11-19T02:15:57.307Z,74.26
2022-11-19T02:18:44.054Z,74.33
2022-11-19T02:21:30.252Z,74.52
2022-11-19T02:24:15.337Z,74.67
2022-11-19T02:27:05.156Z,74.63
2022-11-19T02:30:13.569Z,74.58
2022-11-19T02:32:50.688Z,74.94
2022-11-19T02:35:40.441Z,74.74
2022-11-19T02:38:33.337Z,74.53
2022-11-19T02:41:39.006Z,74.29
2022-11-19T02:44:30.869Z,74.17
2022-11-19T02:47:03.696Z,74.25
2022-11-19T02:49:37.286Z,73.85
2022-11-19T02:52:05.862Z,73.69
2022-11-19T02:54:33.840Z,73.31
2022-11-19T02:57:03.035Z,73.33
2022-11-19T03:00:16.764Z,73.19
2022-11-19T03:03:27.718Z,73.43
2022-11-19T03:06:18.861Z,73.63
2022-11-19T03:08:47.940Z,73.81
2022-11-19T03:11:26.787Z,73.84
2022-11-19T03:14:22.524Z,73.93
2022-11-19T03:16:59.255Z,74.09
2022-11-19T03:19:33.167Z,74.22
2022-11-19T03:22:30.947Z,74.11
2022-11-19T03:25:09.251Z,74.34
2022-11-19T03:27:54.376Z,74.58
2022-11-19T03:30:22.831Z,74.75
2022-11-19T03:32:57.371Z,74.89
2022-11-19T03:35:55.271Z,74.74
2022-11-19T03:38:36.509Z,74.92
2022-11-19T03:41:06.827Z,74.98
2022-11-19T03:43:39.539Z,75.06
2022-11-19T03:46:14.522Z,75.06
2022-11-19T03:48:48.036Z,75.25
2022-11-19T03:51:24.797Z,75.13
2022-11-19T03:53:53.559Z,75.27
2022-11-19T03:56:30.746Z,75.32
2022-11-19T03:58:59.391Z,75.42
2022-11-19T04:01:27.483Z,75.38
2022-11-19T04:04:14.373Z,75.57
2022-11-19T04:06:42.286Z,75.62
2022-11-19T04:09:10.438Z,75.47
2022-11-19T04:11:38.542Z,75.27
2022-11-19T04:14:06.818Z,75.60
2022-11-19T04:16:35.178Z,75.81
2022-11-19T04:19:03.303Z,76.07
2022-11-19T04:21:31.325Z,75.85
2022-11-19T04:23:59.602Z,75.91
2022-11-19T04:26:27.617Z,76.03
2022-11-19T04:28:55.742Z,76.15
2022-11-19T04:31:23.883Z,75.97
2022-11-19T04:33:52.217Z,76.12
2022-11-19T04:36:20.678Z,76.15
2022-11-19T04:38:48.940Z,76.15
2022-11-19T04:41:17.055Z,76.35
2022-11-19T04:43:45.096Z,76.38
2022-11-19T04:46:13.139Z,76.43
2022-11-19T04:48:41.326Z,76.54
2022-11-19T04:51:09.408Z,76.67
2022-11-19T04:53:38.859Z,76.41
2022-11-19T04:56:07.956Z,76.55
2022-11-19T04:58:39.196Z,76.54
2022-11-19T05:01:08.159Z,76.70
2022-11-19T05:03:36.452Z,76.78
2022-11-19T05:06:04.891Z,77.10
2022-11-19T05:08:32.924Z,77.32
2022-11-19T05:11:01.066Z,77.76
2022-11-19T05:13:29.531Z,77.59
2022-11-19T05:15:57.692Z,77.91
2022-11-19T05:18:25.785Z,77.74
2022-11-19T05:20:53.980Z,77.81
2022-11-19T05:23:22.053Z,78.05
2022-11-19T05:25:50.123Z,78.22
2022-11-19T05:28:18.544Z,78.20
2022-11-19T05:30:46.742Z,78.17
2022-11-19T05:33:14.810Z,78.20
2022-11-19T05:35:42.899Z,78.22
2022-11-19T05:38:11.043Z,78.06
2022-11-19T05:40:39.252Z,78.17
2022-11-19T05:43:07.807Z,78.01
2022-11-19T05:45:36.297Z,77.91
2022-11-19T05:48:04.896Z,78.11
2022-11-19T05:50:33.035Z,78.07
2022-11-19T05:53:01.221Z,78.41
2022-11-19T05:55:29.349Z,78.67
2022-11-19T05:57:57.475Z,78.63
2022-11-19T06:00:25.829Z,78.86
2022-11-19T06:02:53.820Z,79.12
2022-11-19T06:05:21.948Z,79.47
2022-11-19T06:07:50.075Z,79.63
2022-11-19T06:10:18.058Z,79.85
2022-11-19T06:12:47.058Z,79.88
2022-11-19T06:15:15.378Z,79.58
2022-11-19T06:17:43.336Z,79.59
2022-11-19T06:20:11.555Z,79.51
2022-11-19T06:22:40.213Z,79.76
2022-11-19T06:25:08.897Z,79.54
2022-11-19T06:27:36.986Z,79.48
2022-11-19T06:30:07.868Z,79.92
2022-11-19T06:32:36.079Z,79.86
2022-11-19T06:35:04.854Z,80.06
2022-11-19T06:37:33.017Z,80.00
2022-11-19T06:40:01.055Z,79.49
2022-11-19T06:42:38.486Z,79.66
2022-11-19T06:45:10.606Z,79.43
2022-11-19T06:47:41.229Z,79.57
2022-11-19T06:50:11.051Z,79.84
2022-11-19T06:52:39.205Z,79.54
2022-11-19T06:55:07.539Z,79.36
2022-11-19T06:57:36.186Z,79.10
2022-11-19T07:00:05.230Z,79.34
2022-11-19T07:02:36.650Z,78.84
2022-11-19T07:05:06.236Z,78.36
2022-11-19T07:07:35.277Z,78.49
2022-11-19T07:10:03.780Z,78.56
2022-11-19T07:12:32.058Z,78.82
2022-11-19T07:15:04.241Z,78.65
2022-11-19T07:17:33.321Z,78.46
2022-11-19T07:20:02.231Z,78.62
2022-11-19T07:22:30.286Z,78.41
2022-11-19T07:24:58.388Z,78.26
2022-11-19T07:27:26.427Z,78.02
2022-11-19T07:29:54.430Z,77.86
2022-11-19T07:32:22.850Z,77.52
2022-11-19T07:34:50.946Z,77.49
2022-11-19T07:37:19.320Z,77.34
2022-11-19T07:39:47.460Z,77.17
2022-11-19T07:42:34.075Z,77.35
2022-11-19T07:45:03.279Z,77.92
2022-11-19T07:47:33.314Z,78.27
2022-11-19T07:50:01.978Z,78.58
2022-11-19T07:52:31.006Z,78.39
2022-11-19T07:54:59.216Z,78.34
2022-11-19T07:57:30.242Z,78.34
2022-11-19T07:59:59.473Z,78.56
2022-11-19T08:02:27.681Z,78.79
2022-11-19T08:04:55.777Z,78.76
2022-11-19T08:07:24.099Z,78.62
2022-11-19T08:09:52.314Z,79.16
2022-11-19T08:12:20.462Z,79.51
2022-11-19T08:14:48.481Z,79.70
2022-11-19T08:17:35.665Z,80.08
2022-11-19T08:20:08.234Z,79.80
2022-11-19T08:22:37.298Z,78.98
2022-11-19T08:25:06.536Z,79.01
2022-11-19T08:27:35.137Z,78.73
2022-11-19T08:30:03.640Z,78.39
2022-11-19T08:32:31.803Z,78.27
2022-11-19T08:35:00.064Z,78.40
2022-11-19T08:37:28.083Z,77.98
2022-11-19T08:39:56.318Z,77.32
2022-11-19T08:42:45.074Z,77.85
2022-11-19T08:45:16.826Z,78.07
2022-11-19T08:47:49.174Z,78.28
2022-11-19T08:50:17.902Z,77.94
2022-11-19T08:52:46.128Z,77.79
2022-11-19T08:55:14.290Z,78.43
2022-11-19T08:57:42.215Z,78.71
2022-11-19T09:00:10.921Z,78.25
2022-11-19T09:02:39.095Z,78.24
2022-11-19T09:05:14.418Z,78.56
2022-11-19T09:07:43.049Z,78.55
2022-11-19T09:10:11.213Z,78.93
2022-11-19T09:12:39.337Z,78.97
2022-11-19T09:15:09.019Z,78.88
2022-11-19T09:17:38.452Z,78.52
2022-11-19T09:20:09.069Z,78.19
2022-11-19T09:22:37.548Z,77.66
2022-11-19T09:25:06.576Z,77.92
2022-11-19T09:27:34.729Z,77.87
2022-11-19T09:30:04.221Z,78.48
2022-11-19T09:32:33.725Z,78.67
2022-11-19T09:35:02.412Z,78.34
2022-11-19T09:37:34.241Z,78.47
2022-11-19T09:40:04.797Z,78.59
2022-11-19T09:43:03.918Z,78.92
2022-11-19T09:46:10.731Z,79.17
2022-11-19T09:48:39.458Z,79.08
2022-11-19T09:51:15.245Z,79.26
2022-11-19T09:54:02.936Z,79.30
2022-11-19T09:56:43.176Z,79.29
2022-11-19T09:59:33.521Z,79.12
2022-11-19T10:02:02.321Z,79.03
2022-11-19T10:04:33.878Z,79.17
2022-11-19T10:07:45.076Z,79.26
2022-11-19T10:10:28.358Z,78.76
2022-11-19T10:13:15.575Z,78.11
2022-11-19T10:16:02.237Z,78.29
2022-11-19T10:18:49.300Z,78.16
2022-11-19T10:21:17.456Z,77.63
2022-11-19T10:24:00.992Z,76.95
2022-11-19T10:26:39.743Z,76.21
2022-11-19T10:29:22.798Z,75.35
2022-11-19T10:31:52.292Z,74.41
2022-11-19T10:34:29.616Z,74.06
2022-11-19T10:37:03.639Z,72.59
2022-11-19T10:39:38.650Z,69.96
2022-11-19T10:42:24.059Z,70.35
2022-11-19T10:44:59.298Z,70.21
2022-11-19T10:47:42.150Z,70.82
2022-11-19T10:50:22.350Z,70.67
2022-11-19T10:52:58.302Z,69.09
2022-11-19T10:55:38.226Z,66.81
2022-11-19T10:58:27.268Z,66.33
2022-11-19T11:00:58.520Z,67.57
2022-11-19T11:03:33.579Z,66.75
2022-11-19T11:06:10.150Z,65.55
2022-11-19T11:09:00.283Z,64.93
2022-11-19T11:11:52.059Z,64.71
2022-11-19T11:14:41.494Z,65.35
2022-11-19T11:17:20.195Z,65.29
2022-11-19T11:20:21.821Z,64.77
2022-11-19T11:23:03.104Z,62.30
2022-11-19T11:25:31.484Z,54.06
2022-11-19T11:28:17.039Z,50.58
2022-11-19T11:30:58.651Z,48.23
2022-11-19T11:33:41.776Z,49.02
2022-11-19T11:36:23.033Z,53.96
2022-11-19T11:38:55.417Z,57.70
2022-11-19T11:44:32.015Z,62.15
2022-11-19T11:47:12.862Z,63.83
2022-11-19T11:49:44.864Z,64.44
2022-11-19T11:52:12.846Z,64.98
2022-11-19T11:55:13.107Z,65.11
2022-11-19T11:57:56.070Z,66.08
2022-11-19T12:00:30.614Z,65.81
2022-11-19T12:03:01.876Z,66.05
2022-11-19T12:05:40.977Z,66.42
2022-11-19T12:08:27.756Z,67.24
2022-11-19T12:11:15.835Z,67.35
2022-11-19T12:13:59.202Z,67.35
2022-11-19T12:16:39.853Z,67.22
2022-11-19T12:19:43.106Z,66.88
2022-11-19T12:22:42.911Z,67.41
2022-11-19T12:25:21.848Z,67.57
2022-11-19T12:28:21.499Z,67.54
2022-11-19T12:30:56.719Z,67.71
2022-11-19T12:34:15.164Z,67.61
2022-11-19T12:36:52.056Z,67.96
2022-11-19T12:39:41.679Z,68.27
2022-11-19T12:42:28.107Z,68.05
2022-11-19T12:45:36.675Z,68.00
2022-11-19T12:48:26.270Z,67.41
2022-11-19T12:51:00.131Z,67.76
2022-11-19T12:54:07.185Z,67.11
2022-11-19T12:56:47.315Z,66.39
2022-11-19T12:59:37.619Z,66.51
2022-11-19T13:02:35.658Z,66.07
2022-11-19T13:05:19.031Z,66.46
2022-11-19T13:07:56.905Z,66.42
2022-11-19T13:10:42.692Z,65.23
2022-11-19T13:13:16.847Z,64.26
2022-11-19T13:16:29.525Z,64.27
2022-11-19T13:19:15.279Z,64.39
2022-11-19T13:21:54.278Z,64.61
2022-11-19T13:24:28.268Z,64.75
2022-11-19T13:27:01.396Z,64.87
2022-11-19T13:30:05.731Z,65.00
2022-11-19T13:33:08.276Z,64.62
2022-11-19T13:35:48.199Z,59.17
2022-11-19T13:38:32.357Z,52.38
2022-11-19T13:41:09.626Z,48.72
2022-11-19T13:43:56.509Z,47.03
2022-11-19T13:46:39.434Z,49.53
2022-11-19T13:49:15.522Z,52.41
2022-11-19T13:51:53.012Z,53.79
2022-11-19T13:54:35.300Z,54.26
2022-11-19T13:57:06.129Z,51.84
2022-11-19T13:59:34.519Z,49.37
2022-11-19T14:02:05.195Z,50.00
2022-11-19T14:05:02.898Z,51.91
2022-11-19T14:07:31.541Z,55.41
2022-11-19T14:10:13.565Z,57.55
2022-11-19T14:12:56.758Z,59.17
2022-11-19T14:16:07.807Z,60.76
2022-11-19T14:19:00.005Z,62.67
2022-11-19T14:21:46.909Z,63.73
2022-11-19T14:25:06.336Z,64.65
2022-11-19T14:27:35.253Z,65.88
2022-11-19T14:30:18.340Z,66.32
2022-11-19T14:32:52.667Z,66.86
2022-11-19T14:35:23.635Z,67.61
2022-11-19T14:37:55.076Z,68.36
2022-11-19T14:40:29.831Z,68.65
2022-11-19T14:43:19.487Z,68.99
2022-11-19T14:46:13.696Z,69.22
2022-11-19T14:48:42.054Z,69.92
2022-11-19T14:51:16.976Z,70.52
2022-11-19T14:54:09.836Z,71.38
2022-11-19T14:56:38.651Z,71.78
2022-11-19T14:59:15.857Z,71.95
2022-11-19T15:01:53.136Z,72.43
2022-11-19T15:04:24.677Z,72.78
2022-11-19T15:06:53.021Z,73.23
2022-11-19T15:09:52.168Z,73.41
2022-11-19T15:12:21.616Z,73.75
2022-11-19T15:15:05.230Z,73.98
2022-11-19T15:17:35.652Z,74.50
2022-11-19T15:20:36.440Z,74.64
2022-11-19T15:23:07.227Z,75.03
2022-11-19T15:26:01.256Z,75.14
2022-11-19T15:28:47.605Z,75.74
2022-11-19T15:31:37.555Z,76.04
2022-11-19T15:34:48.768Z,75.99
2022-11-19T15:37:34.144Z,76.54
2022-11-19T15:40:03.518Z,76.81
2022-11-19T15:42:39.018Z,77.48
2022-11-19T15:45:20.727Z,77.52
2022-11-19T15:48:14.808Z,77.75
2022-11-19T15:50:44.297Z,77.81
2022-11-19T15:53:15.074Z,78.00
2022-11-19T15:56:08.372Z,78.38
2022-11-19T15:58:45.323Z,78.71
2022-11-19T16:01:20.690Z,78.70
2022-11-19T16:03:52.215Z,79.19
2022-11-19T16:06:24.460Z,79.17
2022-11-19T16:08:56.063Z,79.29
2022-11-19T16:11:47.817Z,79.43
2022-11-19T16:14:42.404Z,80.02
2022-11-19T16:17:30.445Z,79.96
2022-11-19T16:20:10.896Z,79.87
2022-11-19T16:22:50.986Z,80.04
2022-11-19T16:25:35.787Z,80.01
2022-11-19T16:28:13.839Z,80.12
2022-11-19T16:30:46.697Z,80.14
2022-11-19T16:33:21.754Z,79.96
2022-11-19T16:35:53.561Z,79.97
2022-11-19T16:38:31.319Z,80.04
2022-11-19T16:41:34.876Z,79.75
2022-11-19T16:44:12.835Z,79.53
2022-11-19T16:46:41.386Z,79.42
2022-11-19T16:49:31.214Z,79.34
2022-11-19T16:51:59.924Z,79.28
2022-11-19T16:54:49.556Z,79.21
2022-11-19T16:57:21.089Z,79.21
2022-11-19T17:00:20.010Z,78.95
2022-11-19T17:02:49.001Z,79.13
2022-11-19T17:05:23.433Z,78.93
2022-11-19T17:08:05.216Z,78.87
2022-11-19T17:10:34.822Z,78.59
2022-11-19T17:13:29.079Z,78.64
2022-11-19T17:16:18.550Z,78.73
2022-11-19T17:18:46.740Z,78.65
2022-11-19T17:21:28.981Z,78.36
2022-11-19T17:23:57.400Z,78.23
2022-11-19T17:26:27.766Z,78.35
2022-11-19T17:29:11.520Z,78.15
2022-11-19T17:31:48.603Z,78.53
2022-11-19T17:34:46.384Z,78.79
2022-11-19T17:37:15.219Z,78.79
2022-11-19T17:39:43.365Z,78.74
2022-11-19T17:42:30.086Z,78.75
2022-11-19T17:44:59.846Z,78.55
2022-11-19T17:47:28.152Z,78.56
2022-11-19T17:49:56.544Z,78.28
2022-11-19T17:52:27.876Z,78.20
2022-11-19T17:54:59.013Z,78.26
2022-11-19T17:57:27.122Z,78.10
2022-11-19T17:59:55.159Z,78.23
2022-11-19T18:02:23.492Z,78.46
2022-11-19T18:04:52.373Z,78.74
2022-11-19T18:07:20.467Z,78.96
2022-11-19T18:09:48.726Z,79.28
2022-11-19T18:12:18.980Z,79.27
2022-11-19T18:14:47.678Z,79.03
2022-11-19T18:17:16.039Z,78.72
2022-11-19T18:19:44.333Z,78.88
2022-11-19T18:22:18.946Z,78.91
2022-11-19T18:24:52.105Z,79.28
2022-11-19T18:27:20.329Z,79.58
2022-11-19T18:29:48.470Z,79.29
2022-11-19T18:32:17.249Z,79.35
2022-11-19T18:34:46.309Z,79.10
2022-11-19T18:37:14.556Z,79.28
2022-11-19T18:39:42.691Z,79.24
2022-11-19T18:42:12.901Z,79.55
2022-11-19T18:44:43.781Z,79.68
2022-11-19T18:47:15.556Z,79.89
2022-11-19T18:49:43.841Z,79.78
2022-11-19T18:52:16.200Z,79.87
2022-11-19T18:54:44.892Z,79.55
2022-11-19T18:57:14.001Z,79.45
2022-11-19T18:59:41.997Z,79.51
2022-11-19T19:02:11.169Z,79.43
2022-11-19T19:04:39.490Z,79.45
2022-11-19T19:07:07.786Z,79.37
2022-11-19T19:09:37.652Z,79.30
2022-11-19T19:12:18.630Z,79.10
2022-11-19T19:14:49.331Z,79.07
2022-11-19T19:17:17.806Z,79.10
2022-11-19T19:19:47.751Z,79.18
2022-11-19T19:22:15.996Z,79.00
2022-11-19T19:24:44.577Z,79.18
2022-11-19T19:27:12.711Z,79.02
2022-11-19T19:29:41.619Z,79.27
2022-11-19T19:32:10.072Z,79.26
2022-11-19T19:34:38.301Z,79.05
2022-11-19T19:37:06.701Z,79.17
2022-11-19T19:39:34.859Z,78.85
2022-11-19T19:42:03.082Z,79.10
2022-11-19T19:44:31.252Z,79.47
2022-11-19T19:46:59.736Z,79.36
2022-11-19T19:49:28.046Z,79.30
2022-11-19T19:51:56.321Z,79.46
2022-11-19T19:54:24.602Z,79.75
2022-11-19T19:56:53.476Z,79.80
2022-11-19T19:59:21.749Z,79.62
2022-11-19T20:01:51.854Z,79.62
2022-11-19T20:04:20.201Z,79.76
2022-11-19T20:06:48.641Z,79.36
2022-11-19T20:09:17.183Z,79.61
2022-11-19T20:11:45.576Z,79.60
2022-11-19T20:14:13.783Z,79.97
2022-11-19T20:16:42.177Z,80.30
2022-11-19T20:19:15.192Z,80.30
2022-11-19T20:21:43.772Z,80.71
2022-11-19T20:24:13.748Z,80.78
2022-11-19T20:26:43.193Z,80.76
2022-11-19T20:29:14.273Z,80.73
2022-11-19T20:31:47.235Z,80.78
2022-11-19T20:34:17.049Z,80.96
2022-11-19T20:36:46.777Z,81.23
2022-11-19T20:39:15.460Z,81.35
2022-11-19T20:42:02.233Z,81.71
2022-11-19T20:44:30.645Z,81.99
2022-11-19T20:47:04.101Z,82.28
2022-11-19T20:49:35.309Z,82.22
2022-11-19T20:52:03.996Z,82.57
2022-11-19T20:54:34.533Z,82.59
2022-11-19T20:57:02.988Z,82.76
2022-11-19T20:59:31.221Z,82.80
2022-11-19T21:01:59.653Z,82.99
2022-11-19T21:04:36.661Z,83.46
2022-11-19T21:07:05.538Z,83.19
2022-11-19T21:09:33.976Z,83.54
2022-11-19T21:12:02.550Z,83.73
2022-11-19T21:14:30.825Z,83.87
2022-11-19T21:16:59.116Z,84.41
2022-11-19T21:19:27.323Z,84.19
2022-11-19T21:21:55.576Z,84.15
2022-11-19T21:24:23.801Z,84.41
2022-11-19T21:26:52.310Z,84.48
2022-11-19T21:29:20.797Z,84.50
2022-11-19T21:31:49.520Z,84.83
2022-11-19T21:34:20.827Z,84.40
2022-11-19T21:36:49.942Z,84.32
2022-11-19T21:39:19.943Z,84.20
2022-11-19T21:41:48.956Z,84.27
2022-11-19T21:44:21.483Z,83.96
2022-11-19T21:46:50.431Z,83.85
2022-11-19T21:49:19.059Z,83.83
2022-11-19T21:51:47.696Z,83.44
2022-11-19T21:54:16.173Z,83.25
2022-11-19T21:56:44.587Z,83.11
2022-11-19T21:59:13.403Z,82.92
2022-11-19T22:01:41.763Z,82.55
2022-11-19T22:04:14.362Z,82.67
2022-11-19T22:06:42.553Z,82.72
2022-11-19T22:09:10.773Z,82.78
2022-11-19T22:11:39.186Z,83.09
2022-11-19T22:14:09.405Z,83.05
2022-11-19T22:16:39.382Z,82.83
2022-11-19T22:19:08.054Z,82.25
2022-11-19T22:21:36.476Z,81.99
2022-11-19T22:24:05.377Z,81.87
2022-11-19T22:26:33.438Z,82.07
2022-11-19T22:29:01.555Z,81.74
2022-11-19T22:31:29.739Z,81.55
2022-11-19T22:33:57.696Z,81.75
2022-11-19T22:36:25.798Z,81.72
2022-11-19T22:38:53.958Z,81.67
2022-11-19T22:41:22.980Z,81.69
2022-11-19T22:43:51.417Z,81.62
2022-11-19T22:46:20.305Z,81.55
2022-11-19T22:48:48.736Z,81.67
2022-11-19T22:51:20.801Z,81.84
2022-11-19T22:53:51.068Z,81.99
2022-11-19T22:56:25.357Z,81.72
2022-11-19T22:58:54.046Z,81.67
2022-11-19T23:01:28.949Z,81.40
2022-11-19T23:03:59.528Z,81.48
2022-11-19T23:06:27.989Z,81.67
2022-11-19T23:08:56.922Z,82.02
2022-11-19T23:11:44.060Z,82.14
2022-11-19T23:14:15.937Z,82.18
2022-11-19T23:16:44.873Z,81.86
2022-11-19T23:19:14.254Z,81.79
2022-11-19T23:21:42.655Z,82.08
2022-11-19T23:24:11.785Z,81.91
2022-11-19T23:26:40.254Z,81.76
2022-11-19T23:29:09.390Z,82.14
2022-11-19T23:31:40.661Z,82.10
2022-11-19T23:34:08.936Z,82.13
2022-11-19T23:36:39.911Z,82.22
2022-11-19T23:39:15.249Z,82.63
2022-11-19T23:41:44.166Z,82.65
2022-11-19T23:44:12.608Z,82.69
2022-11-19T23:46:41.133Z,82.83
2022-11-19T23:49:11.051Z,82.74
2022-11-19T23:51:40.270Z,82.67
2022-11-19T23:54:08.562Z,82.82
2022-11-19T23:56:37.182Z,82.93
2022-11-19T23:59:06.206Z,83.01
